Time;durP1;ratioP1;P1;durP2;ratioP2;P2;SDS_P1;SDS_P2;PMS_P1;PMS_P2;Temp;Humidity;BMP_temperature;BMP_pressure;BME280_temperature;BME280_humidity;BME280_pressure;Samples;Min_cycle;Max_cycle;Signal;HPM_P1;HPM_P2
2022/04/01 00:01:12;;;;;;;;;;;;;;;4.18;97.43;94477.47;5075647;28;20050;-70
2022/04/01 00:03:38;;;;;;;;;;;;;;;4.19;97.28;94476.47;5076128;28;19951;-70
2022/04/01 00:06:04;;;;;;;;;;;;;;;4.26;98.14;94479.72;5076695;28;20074;-71
2022/04/01 00:08:30;;;;;;;;;;;;;;;4.29;96.79;94476.69;5076184;28;19989;-71
2022/04/01 00:10:55;;;;;;;;;;;;;;;4.33;96.42;94471.84;5076721;28;20010;-71
2022/04/01 00:13:21;;;;;;;;;;;;;;;4.37;95.94;94475.56;5075890;28;20425;-71
2022/04/01 00:15:47;;;;;;;;;;;;;;;4.43;96.37;94479.81;5076679;28;19967;-70
2022/04/01 00:18:13;;;;;;;;;;;;;;;4.48;95.47;94478.13;5076128;28;19954;-71
2022/04/01 00:20:39;;;;;;;;;;;;;;;4.47;95.61;94479.16;5075965;28;20004;-71
2022/04/01 00:23:05;;;;;;;;;;;;;;;4.47;95.04;94479.16;5076089;28;19971;-70
2022/04/01 00:25:31;;;;;;;;;;;;;;;4.47;94.62;94483.53;5075811;28;20359;-71
2022/04/01 00:27:57;;;;;;;;;;;;;;;4.46;94.98;94480.16;5075817;28;19963;-71
2022/04/01 00:30:23;;;;;;;;;;;;;;;4.42;94.51;94479.03;5076337;28;20011;-71
2022/04/01 00:32:49;;;;;;;;;;;;;;;4.39;94.66;94482.09;5075827;28;20329;-71
2022/04/01 00:35:15;;;;;;;;;;;;;;;4.30;95.51;94480.06;5075850;28;20023;-71
2022/04/01 00:37:41;;;;;;;;;;;;;;;4.23;96.18;94482.78;5075847;28;19980;-71
2022/04/01 00:40:10;;;;;;;;;;;;;;;4.19;95.84;94476.47;5075695;28;19952;-71
2022/04/01 00:42:36;;;;;;;;;;;;;;;4.13;95.57;94480.72;5075932;28;19964;-71
2022/04/01 00:45:02;;;;;;;;;;;;;;;4.09;95.21;94481.41;5075415;28;19961;-71
2022/04/01 00:47:28;;;;;;;;;;;;;;;3.96;95.74;94491.00;5075639;28;19969;-71
2022/04/01 00:49:55;;;;;;;;;;;;;;;3.84;96.08;94491.00;5074342;28;20006;-70
2022/04/01 00:52:22;;;;;;;;;;;;;;;3.74;97.60;94482.16;5075374;28;20335;-70
2022/04/01 00:54:48;;;;;;;;;;;;;;;3.66;97.27;94491.06;5076006;28;20451;-70
2022/04/01 00:57:14;;;;;;;;;;;;;;;3.62;98.23;94492.53;5075536;28;20318;-70
2022/04/01 00:59:52;;;;;;;;;;;;;;;3.59;97.93;94496.34;5074959;28;19952;-70
2022/04/01 01:02:18;;;;;;;;;;;;;;;3.56;96.19;94488.22;5075284;28;19962;-70
2022/04/01 01:04:45;;;;;;;;;;;;;;;3.48;96.03;94491.91;5075434;28;19990;-70
2022/04/01 01:07:11;;;;;;;;;;;;;;;3.43;97.98;94476.25;5075069;28;19963;-70
2022/04/01 01:09:37;;;;;;;;;;;;;;;3.41;99.07;94494.59;5075314;28;19973;-70
2022/04/01 01:12:04;;;;;;;;;;;;;;;3.39;98.15;94491.44;5075082;28;19990;-70
2022/04/01 01:14:31;;;;;;;;;;;;;;;3.35;98.96;94487.72;5075026;28;19971;-70
2022/04/01 01:16:58;;;;;;;;;;;;;;;3.33;98.46;94483.78;5061631;28;19963;-70
2022/04/01 01:19:25;;;;;;;;;;;;;;;3.32;98.90;94490.75;5074989;28;19959;-70
2022/04/01 01:21:52;;;;;;;;;;;;;;;3.32;98.11;94487.34;5075311;28;20363;-69
2022/04/01 01:24:27;;;;;;;;;;;;;;;3.40;99.97;94487.03;5074794;28;19953;-69
2022/04/01 01:26:54;;;;;;;;;;;;;;;3.46;97.32;94488.75;5074716;28;19954;-70
2022/04/01 01:29:25;;;;;;;;;;;;;;;3.48;97.37;94494.50;5075105;28;19952;-70
2022/04/01 01:31:52;;;;;;;;;;;;;;;3.47;96.30;94477.41;5074489;28;20341;-70
2022/04/01 01:34:18;;;;;;;;;;;;;;;3.48;96.82;94481.56;5074613;28;19973;-70
2022/04/01 01:36:44;;;;;;;;;;;;;;;3.45;96.40;94482.78;5073921;28;19951;-70
2022/04/01 01:39:09;;;;;;;;;;;;;;;3.42;96.55;94483.25;5074635;28;19961;-70
2022/04/01 01:41:35;;;;;;;;;;;;;;;3.45;96.47;94487.97;5074639;28;20042;-70
2022/04/01 01:44:01;;;;;;;;;;;;;;;3.48;96.97;94493.72;5074353;28;19979;-70
2022/04/01 01:46:27;;;;;;;;;;;;;;;3.44;95.66;94483.00;5074391;28;19959;-70
2022/04/01 01:48:53;;;;;;;;;;;;;;;3.40;95.17;94485.28;5073201;28;19958;-70
2022/04/01 01:56:48;;;;;;;;;;;;;;;3.34;96.46;94480.97;5074093;28;19972;-70
2022/04/01 01:59:14;;;;;;;;;;;;;;;3.31;95.82;94475.44;5074221;28;19958;-70
2022/04/01 02:01:41;;;;;;;;;;;;;;;3.26;97.77;94478.69;5074055;28;20406;-70
2022/04/01 02:04:07;;;;;;;;;;;;;;;3.25;98.16;94480.50;5074160;28;19981;-70
2022/04/01 02:06:33;;;;;;;;;;;;;;;3.27;99.22;94475.06;5074199;28;20435;-70
2022/04/01 02:08:59;;;;;;;;;;;;;;;3.28;97.82;94476.66;5074126;28;20034;-70
2022/04/01 02:11:25;;;;;;;;;;;;;;;3.21;97.24;94470.78;5073836;28;19957;-70
2022/04/01 02:13:51;;;;;;;;;;;;;;;3.15;97.98;94480.22;5072829;28;19976;-70
2022/04/01 02:16:18;;;;;;;;;;;;;;;3.07;96.79;94474.53;5074274;28;19968;-70
2022/04/01 02:18:44;;;;;;;;;;;;;;;3.08;97.45;94476.13;5074318;28;19962;-70
2022/04/01 02:21:15;;;;;;;;;;;;;;;3.07;96.35;94477.94;5073765;28;19954;-70
2022/04/01 02:23:43;;;;;;;;;;;;;;;3.05;96.53;94482.53;5074006;28;19956;-70
2022/04/01 02:26:09;;;;;;;;;;;;;;;3.05;96.69;94482.53;5073988;28;19956;-70
2022/04/01 02:28:35;;;;;;;;;;;;;;;3.05;96.44;94477.38;5073616;28;20329;-70
2022/04/01 02:31:01;;;;;;;;;;;;;;;3.02;96.59;94470.84;5073760;28;19958;-70
2022/04/01 02:33:28;;;;;;;;;;;;;;;2.99;96.20;94478.25;5073702;28;20411;-70
2022/04/01 02:35:57;;;;;;;;;;;;;;;2.94;96.30;94478.91;5073643;28;19968;-71
2022/04/01 02:38:27;;;;;;;;;;;;;;;2.89;94.73;94472.78;5073840;28;19958;-71
2022/04/01 02:40:57;;;;;;;;;;;;;;;2.85;97.14;94480.97;5059306;28;19947;-71
2022/04/01 02:43:24;;;;;;;;;;;;;;;2.84;98.04;94487.19;5073939;28;19966;-71
2022/04/01 02:45:50;;;;;;;;;;;;;;;2.86;99.08;94481.78;5072469;28;19967;-70
2022/04/01 02:48:16;;;;;;;;;;;;;;;2.91;97.96;94486.31;5073257;28;19957;-70
2022/04/01 02:50:47;;;;;;;;;;;;;;;2.94;98.67;94483.28;5073314;28;19968;-69
2022/04/01 02:53:13;;;;;;;;;;;;;;;2.97;98.95;94482.84;5063525;28;19963;-70
2022/04/01 02:55:39;;;;;;;;;;;;;;;2.99;98.58;94488.59;5073295;28;20356;-69
2022/04/01 02:58:06;;;;;;;;;;;;;;;2.97;97.70;94485.44;5072368;28;19999;-69
2022/04/01 03:00:32;;;;;;;;;;;;;;;2.97;98.35;94486.22;5073545;28;19984;-69
2022/04/01 03:02:59;;;;;;;;;;;;;;;2.99;98.46;94479.03;5073864;28;19967;-69
2022/04/01 03:05:25;;;;;;;;;;;;;;;2.99;98.12;94488.59;5073439;28;19975;-70
2022/04/01 03:08:11;;;;;;;;;;;;;;;2.95;99.05;94480.47;5065441;28;19955;-69
2022/04/01 03:10:38;;;;;;;;;;;;;;;2.89;97.40;94489.09;5072160;28;19970;-70
2022/04/01 03:13:07;;;;;;;;;;;;;;;2.80;98.49;94496.38;5073295;28;20401;-69
2022/04/01 03:15:33;;;;;;;;;;;;;;;2.70;100.00;94492.72;5073575;28;19971;-70
2022/04/01 03:17:59;;;;;;;;;;;;;;;2.67;100.00;94487.97;5073347;28;19956;-70
2022/04/01 03:20:25;;;;;;;;;;;;;;;2.70;100.00;94492.72;5073209;28;20023;-70
2022/04/01 03:22:52;;;;;;;;;;;;;;;2.73;100.00;94489.69;5073097;28;19962;-70
2022/04/01 03:25:19;;;;;;;;;;;;;;;2.78;99.77;94495.81;5073290;28;19965;-70
2022/04/01 03:27:45;;;;;;;;;;;;;;;2.79;99.21;94494.00;5073122;28;20457;-70
2022/04/01 03:30:11;;;;;;;;;;;;;;;2.78;98.38;94497.63;5062782;28;19964;-70
2022/04/01 03:32:38;;;;;;;;;;;;;;;2.74;99.01;94506.81;5073263;28;19956;-70
2022/04/01 03:35:07;;;;;;;;;;;;;;;2.72;98.40;94501.84;5072893;28;20454;-70
2022/04/01 03:37:33;;;;;;;;;;;;;;;2.75;99.23;94508.38;5073506;28;19966;-70
2022/04/01 03:40:00;;;;;;;;;;;;;;;2.76;97.70;94507.38;5073088;28;19959;-69
2022/04/01 03:42:31;;;;;;;;;;;;;;;2.71;97.39;94505.47;5073098;28;19972;-70
2022/04/01 03:45:03;;;;;;;;;;;;;;;2.67;98.06;94506.91;5072978;28;20448;-70
2022/04/01 03:47:35;;;;;;;;;;;;;;;2.69;98.62;94511.84;5073098;28;20339;-69
2022/04/01 03:50:02;;;;;;;;;;;;;;;2.71;97.27;94509.81;5073028;28;19980;-70
2022/04/01 03:52:31;;;;;;;;;;;;;;;2.68;97.17;94508.47;5072372;28;20323;-69
2022/04/01 03:55:01;;;;;;;;;;;;;;;2.66;97.67;94507.88;5071764;28;19969;-69
2022/04/01 03:57:32;;;;;;;;;;;;;;;2.67;98.05;94506.09;5073008;28;19956;-69
2022/04/01 03:59:58;;;;;;;;;;;;;;;2.72;98.18;94503.66;5073374;28;19952;-70
2022/04/01 04:02:26;;;;;;;;;;;;;;;2.76;97.95;94500.41;5077133;28;19955;-70
2022/04/01 04:04:53;;;;;;;;;;;;;;;2.80;98.48;94509.31;5076266;28;19986;-70
2022/04/01 04:07:19;;;;;;;;;;;;;;;2.83;96.78;94511.50;5076369;28;19955;-69
2022/04/01 04:09:45;;;;;;;;;;;;;;;2.87;97.56;94513.63;5076365;28;19987;-69
2022/04/01 04:12:13;;;;;;;;;;;;;;;2.90;96.86;94510.59;5076532;28;19975;-70
2022/04/01 04:14:39;;;;;;;;;;;;;;;2.91;97.12;94507.81;5076820;28;19979;-70
2022/04/01 04:17:08;;;;;;;;;;;;;;;2.92;96.91;94513.75;5075110;28;19972;-70
2022/04/01 04:19:58;;;;;;;;;;;;;;;2.93;96.84;94510.19;5076460;28;19953;-70
2022/04/01 04:22:35;;;;;;;;;;;;;;;2.91;95.56;94507.00;5073027;28;19970;-70
2022/04/01 04:25:10;;;;;;;;;;;;;;;2.83;95.91;94518.44;5076343;28;19960;-70
2022/04/01 04:27:36;;;;;;;;;;;;;;;2.73;95.71;94512.97;5075975;28;19960;-70
2022/04/01 04:30:08;;;;;;;;;;;;;;;2.66;96.14;94507.88;5076259;28;19955;-70
2022/04/01 04:32:35;;;;;;;;;;;;;;;2.63;97.15;94516.88;5076290;28;20329;-70
2022/04/01 04:35:05;;;;;;;;;;;;;;;2.62;97.92;94515.31;5075725;28;19990;-70
2022/04/01 04:37:33;;;;;;;;;;;;;;;2.61;97.51;94511.13;5074423;28;19959;-70
2022/04/01 04:39:59;;;;;;;;;;;;;;;2.61;96.75;94520.69;5075889;28;19973;-70
2022/04/01 04:42:27;;;;;;;;;;;;;;;2.55;96.73;94516.38;5075896;28;20326;-70
2022/04/01 04:44:53;;;;;;;;;;;;;;;2.46;97.38;94526.22;5076243;28;20308;-70
2022/04/01 04:47:27;;;;;;;;;;;;;;;2.41;98.71;94524.25;5075635;28;19950;-70
2022/04/01 04:49:54;;;;;;;;;;;;;;;2.40;98.73;94520.09;5075499;28;20425;-70
2022/04/01 04:52:22;;;;;;;;;;;;;;;2.37;97.35;94517.13;5075401;28;19957;-70
2022/04/01 04:54:50;;;;;;;;;;;;;;;2.31;98.86;94528.34;5074277;28;19985;-70
2022/04/01 04:57:18;;;;;;;;;;;;;;;2.22;99.23;94528.59;5074168;28;19966;-71
2022/04/01 04:59:45;;;;;;;;;;;;;;;2.19;99.86;94525.69;5075389;28;20337;-71
2022/04/01 05:02:14;;;;;;;;;;;;;;;2.20;100.00;94535.78;5075216;28;19954;-71
2022/04/01 05:04:54;;;;;;;;;;;;;;;2.23;100.00;94540.53;5075026;28;19976;-70
2022/04/01 05:07:29;;;;;;;;;;;;;;;2.24;100.00;94536.94;5075133;28;19961;-70
2022/04/01 05:10:07;;;;;;;;;;;;;;;2.23;100.00;94542.34;5075373;28;20420;-70
2022/04/01 05:12:33;;;;;;;;;;;;;;;2.28;100.00;94546.88;5074321;28;19951;-70
2022/04/01 05:14:59;;;;;;;;;;;;;;;2.32;99.76;94542.88;5075093;28;19973;-70
2022/04/01 05:17:26;;;;;;;;;;;;;;;2.34;99.52;94549.41;5074912;28;19973;-70
2022/04/01 05:19:58;;;;;;;;;;;;;;;2.33;100.00;94557.38;5075047;28;19953;-70
2022/04/01 05:22:29;;;;;;;;;;;;;;;2.27;100.00;94547.88;5075125;28;19963;-70
2022/04/01 05:24:56;;;;;;;;;;;;;;;2.25;100.00;94558.44;5075056;28;19953;-71
2022/04/01 05:27:24;;;;;;;;;;;;;;;2.22;100.00;94557.06;5062125;28;19962;-70
2022/04/01 05:29:58;;;;;;;;;;;;;;;2.18;100.00;94561.09;5074621;28;20412;-70
2022/04/01 05:32:28;;;;;;;;;;;;;;;2.11;100.00;94565.50;5074874;28;20413;-69
2022/04/01 05:34:55;;;;;;;;;;;;;;;2.08;100.00;94554.78;5074504;28;20426;-70
2022/04/01 05:37:25;;;;;;;;;;;;;;;2.09;100.00;94567.50;5075034;28;19957;-69
2022/04/01 05:39:52;;;;;;;;;;;;;;;2.06;100.00;94567.94;5074541;28;19968;-70
2022/04/01 05:42:19;;;;;;;;;;;;;;;2.08;100.00;94565.94;5074462;28;19961;-70
2022/04/01 05:44:45;;;;;;;;;;;;;;;2.14;100.00;94575.44;5074831;28;19953;-69
2022/04/01 05:47:11;;;;;;;;;;;;;;;2.13;100.00;94573.84;5074867;28;19961;-69
2022/04/01 05:49:41;;;;;;;;;;;;;;;2.11;100.00;94570.69;5074319;28;19955;-69
2022/04/01 05:52:11;;;;;;;;;;;;;;;2.03;99.87;94574.31;5074288;28;19977;-70
2022/04/01 05:54:38;;;;;;;;;;;;;;;2.01;100.00;94576.31;5074182;28;19965;-70
2022/04/01 05:57:07;;;;;;;;;;;;;;;1.99;99.78;94574.94;5074446;28;19950;-69
2022/04/01 05:59:33;;;;;;;;;;;;;;;1.98;100.00;94581.91;5074065;28;19982;-70
2022/04/01 06:02:18;;;;;;;;;;;;;;;1.98;99.87;94581.91;5074249;28;19951;-69
2022/04/01 06:04:56;;;;;;;;;;;;;;;2.01;99.56;94589.22;5060440;28;19969;-70
2022/04/01 06:07:25;;;;;;;;;;;;;;;1.99;98.92;94593.81;5074588;28;20328;-70
2022/04/01 06:10:00;;;;;;;;;;;;;;;2.01;99.72;94597.00;5074059;28;19958;-69
2022/04/01 06:12:34;;;;;;;;;;;;;;;1.98;99.68;94581.13;5074104;28;20281;-70
2022/04/01 06:15:11;;;;;;;;;;;;;;;1.97;99.84;94589.88;5073897;28;20439;-70
2022/04/01 06:18:02;;;;;;;;;;;;;;;1.98;100.00;94597.41;5073953;28;19962;-70
2022/04/01 06:20:32;;;;;;;;;;;;;;;2.02;100.00;94606.34;5074090;28;19956;-69
2022/04/01 06:22:59;;;;;;;;;;;;;;;2.06;99.01;94595.56;5073569;28;19952;-69
2022/04/01 06:25:28;;;;;;;;;;;;;;;2.03;98.60;94596.78;5073650;28;19955;-70
2022/04/01 06:28:15;;;;;;;;;;;;;;;2.00;98.19;94607.56;5073776;28;19945;-69
2022/04/01 06:30:42;;;;;;;;;;;;;;;1.98;97.73;94605.19;5065398;28;19958;-69
2022/04/01 06:33:11;;;;;;;;;;;;;;;1.98;98.32;94607.75;5073747;28;19965;-70
2022/04/01 06:35:47;;;;;;;;;;;;;;;1.99;98.34;94611.91;5060791;28;19972;-69
2022/04/01 06:38:20;;;;;;;;;;;;;;;1.97;97.01;94615.72;5073635;28;19983;-69
2022/04/01 06:40:52;;;;;;;;;;;;;;;1.95;96.43;94612.56;5072419;28;19950;-70
2022/04/01 06:43:18;;;;;;;;;;;;;;;1.95;96.75;94620.31;5073932;28;19955;-70
2022/04/01 06:45:44;;;;;;;;;;;;;;;1.94;96.62;94619.53;5073697;28;19975;-70
2022/04/01 06:48:10;;;;;;;;;;;;;;;1.96;96.33;94617.50;5073705;28;19954;-70
2022/04/01 06:50:37;;;;;;;;;;;;;;;1.92;96.42;94621.53;5073396;28;19996;-70
2022/04/01 06:53:03;;;;;;;;;;;;;;;1.94;97.14;94613.56;5073360;28;19955;-70
2022/04/01 06:55:28;;;;;;;;;;;;;;;1.96;96.98;94621.91;5072567;28;20012;-70
2022/04/01 06:57:54;;;;;;;;;;;;;;;1.90;96.10;94626.09;5073572;28;19954;-70
2022/04/01 07:00:20;;;;;;;;;;;;;;;1.93;95.57;94630.06;5073531;28;20334;-70
2022/04/01 07:02:48;;;;;;;;;;;;;;;1.92;95.99;94631.06;5073575;28;19960;-70
2022/04/01 07:05:14;;;;;;;;;;;;;;;1.91;96.38;94634.66;5073751;28;19991;-70
2022/04/01 07:07:43;;;;;;;;;;;;;;;1.96;97.52;94638.19;5073471;28;19966;-70
2022/04/01 07:10:12;;;;;;;;;;;;;;;1.96;95.68;94632.25;5073846;28;20363;-70
2022/04/01 07:12:38;;;;;;;;;;;;;;;1.92;96.37;94631.84;5073640;28;19952;-70
2022/04/01 07:15:07;;;;;;;;;;;;;;;1.92;96.69;94634.44;5073428;28;19977;-70
2022/04/01 07:17:33;;;;;;;;;;;;;;;1.91;96.46;94635.47;5073165;28;19957;-70
2022/04/01 07:19:59;;;;;;;;;;;;;;;1.90;96.53;94636.44;5073066;28;19962;-69
2022/04/01 07:22:25;;;;;;;;;;;;;;;1.91;96.69;94629.47;5073254;28;19966;-70
2022/04/01 07:24:51;;;;;;;;;;;;;;;1.95;96.58;94631.47;5073509;28;20046;-70
2022/04/01 07:27:17;;;;;;;;;;;;;;;1.98;96.01;94632.81;5073340;28;19957;-70
2022/04/01 07:29:43;;;;;;;;;;;;;;;2.01;95.83;94632.41;5073492;28;19961;-70
2022/04/01 07:34:53;;;;;;;;;;;;;;;2.10;96.93;94644.09;5073370;28;20331;-70
2022/04/01 07:37:22;;;;;;;;;;;;;;;2.11;95.09;94644.88;5076888;28;19952;-70
2022/04/01 07:39:48;;;;;;;;;;;;;;;2.10;95.84;94646.66;5077108;28;19953;-70
2022/04/01 07:42:21;;;;;;;;;;;;;;;2.11;94.65;94652.63;5076936;28;19978;-70
2022/04/01 07:44:48;;;;;;;;;;;;;;;2.13;95.64;94648.03;5076523;28;19953;-70
2022/04/01 07:47:14;;;;;;;;;;;;;;;2.14;95.99;94647.03;5075404;28;19993;-70
2022/04/01 07:49:40;;;;;;;;;;;;;;;2.17;95.66;94650.00;5076513;28;20430;-70
2022/04/01 07:52:08;;;;;;;;;;;;;;;2.18;94.92;94654.19;5075532;28;19953;-70
2022/04/01 07:54:35;;;;;;;;;;;;;;;2.20;95.65;94652.16;5076738;28;19950;-70
2022/04/01 07:57:02;;;;;;;;;;;;;;;2.14;94.14;94650.44;5076641;28;19958;-69
2022/04/01 07:59:28;;;;;;;;;;;;;;;2.11;96.76;94652.63;5075857;28;19970;-70
2022/04/01 08:01:54;;;;;;;;;;;;;;;2.29;97.23;94659.66;5075859;28;19951;-70
2022/04/01 08:04:20;;;;;;;;;;;;;;;2.24;94.59;94662.88;5076066;28;19980;-70
2022/04/01 08:06:46;;;;;;;;;;;;;;;2.14;93.99;94665.13;5076907;28;19956;-70
2022/04/01 08:09:12;;;;;;;;;;;;;;;2.06;94.37;94662.78;5076235;28;19953;-70
2022/04/01 08:11:38;;;;;;;;;;;;;;;1.95;94.66;94665.06;5076288;28;19963;-70
2022/04/01 08:19:52;;;;;;;;;;;;;;;1.92;95.31;94668.03;4879078;29;20448;-76
2022/04/01 08:22:18;;;;;;;;;;;;;;;1.95;95.15;94675.41;4881860;29;19967;-75
2022/04/01 08:24:45;;;;;;;;;;;;;;;2.04;96.37;94673.34;4882497;29;20420;-75
2022/04/01 08:27:11;;;;;;;;;;;;;;;2.04;94.42;94678.53;4882565;29;20323;-75
2022/04/01 08:29:38;;;;;;;;;;;;;;;2.07;94.92;94685.06;4882062;29;19970;-75
2022/04/01 08:32:07;;;;;;;;;;;;;;;2.07;93.88;94685.06;4881901;29;19967;-76
2022/04/01 08:34:33;;;;;;;;;;;;;;;2.12;94.65;94695.56;4881878;29;19962;-75
2022/04/01 08:36:59;;;;;;;;;;;;;;;2.12;93.58;94690.41;4882306;29;20068;-75
2022/04/01 08:39:25;;;;;;;;;;;;;;;2.08;93.57;94690.03;4875777;29;20133;-75
2022/04/01 08:41:51;;;;;;;;;;;;;;;2.09;94.69;94696.00;4881265;29;20036;-75
2022/04/01 08:44:17;;;;;;;;;;;;;;;2.10;93.64;94694.97;4880471;29;19954;-75
2022/04/01 08:46:43;;;;;;;;;;;;;;;2.14;94.26;94707.31;4881307;29;19969;-75
2022/04/01 08:49:09;;;;;;;;;;;;;;;2.19;94.47;94704.88;4882033;29;19967;-75
2022/04/01 08:51:35;;;;;;;;;;;;;;;2.21;92.79;94705.47;4861955;29;19964;-75
2022/04/01 08:54:02;;;;;;;;;;;;;;;2.18;92.45;94708.47;4875671;29;19979;-76
2022/04/01 08:56:29;;;;;;;;;;;;;;;2.08;91.49;94704.75;4881728;29;20458;-76
2022/04/01 08:58:55;;;;;;;;;;;;;;;2.00;92.92;94714.34;4881757;29;19957;-75
2022/04/01 09:01:21;;;;;;;;;;;;;;;1.96;93.23;94709.78;4881664;29;19957;-76
2022/04/01 09:03:47;;;;;;;;;;;;;;;2.00;94.07;94710.97;4881922;29;19956;-75
2022/04/01 09:06:13;;;;;;;;;;;;;;;2.02;93.50;94719.31;4881491;29;19963;-76
2022/04/01 09:08:40;;;;;;;;;;;;;;;2.01;93.86;94721.06;4880990;29;19977;-76
2022/04/01 09:11:06;;;;;;;;;;;;;;;2.03;94.43;94726.03;4865028;29;19961;-75
2022/04/01 09:13:35;;;;;;;;;;;;;;;2.11;95.63;94730.97;4881285;29;20406;-74
2022/04/01 09:16:01;;;;;;;;;;;;;;;2.13;93.05;94730.78;4881127;29;19969;-76
2022/04/01 09:18:33;;;;;;;;;;;;;;;2.13;94.03;94733.38;4880862;29;19983;-75
2022/04/01 09:20:59;;;;;;;;;;;;;;;2.15;93.58;94736.53;4881640;29;20408;-75
2022/04/01 09:23:25;;;;;;;;;;;;;;;2.20;93.90;94737.47;4881354;29;19970;-74
2022/04/01 09:25:52;;;;;;;;;;;;;;;2.24;93.98;94725.72;4881292;29;19965;-74
2022/04/01 09:28:29;;;;;;;;;;;;;;;2.21;93.21;94733.91;4880861;29;19962;-74
2022/04/01 09:30:58;;;;;;;;;;;;;;;2.18;92.88;94736.94;4880923;29;19950;-74
2022/04/01 09:33:28;;;;;;;;;;;;;;;2.18;93.05;94736.94;4881399;29;19960;-75
2022/04/01 09:36:18;;;;;;;;;;;;;;;2.20;93.97;94736.69;4863586;29;20352;-76
2022/04/01 09:38:55;;;;;;;;;;;;;;;2.23;94.26;94749.22;4880591;29;19950;-75
2022/04/01 09:41:27;;;;;;;;;;;;;;;2.22;93.69;94753.59;4880851;29;19959;-75
2022/04/01 09:43:59;;;;;;;;;;;;;;;2.18;92.89;94746.44;4881321;29;19969;-75
2022/04/01 09:46:26;;;;;;;;;;;;;;;2.14;93.23;94756.44;4881027;29;19955;-75
2022/04/01 09:48:55;;;;;;;;;;;;;;;2.09;93.00;94758.03;4880327;29;19969;-75
2022/04/01 09:51:21;;;;;;;;;;;;;;;2.09;93.08;94756.25;4879806;29;19982;-74
2022/04/01 09:53:54;;;;;;;;;;;;;;;2.11;92.76;94756.06;4880862;29;19959;-75
2022/04/01 09:56:59;;;;;;;;;;;;;;;2.17;93.45;94763.78;4875571;29;19972;-75
2022/04/01 09:59:25;;;;;;;;;;;;;;;2.15;92.00;94763.19;4804733;29;19967;-75
2022/04/01 10:01:51;;;;;;;;;;;;;;;2.15;92.79;94764.97;4805068;29;20065;-75
2022/04/01 10:04:17;;;;;;;;;;;;;;;2.20;94.09;94773.69;4839568;29;19961;-74
2022/04/01 10:06:43;;;;;;;;;;;;;;;2.27;92.81;94770.28;4880375;29;19999;-75
2022/04/01 10:09:10;;;;;;;;;;;;;;;2.22;92.38;94766.50;4880230;29;19961;-75
2022/04/01 10:11:37;;;;;;;;;;;;;;;2.20;93.31;94762.56;4880428;29;19955;-76
2022/04/01 10:14:26;;;;;;;;;;;;;;;2.24;92.67;94761.16;4875254;29;19974;-74
2022/04/01 10:16:54;;;;;;;;;;;;;;;2.26;92.91;94766.91;4880009;29;19974;-74
2022/04/01 10:19:25;;;;;;;;;;;;;;;2.26;92.96;94763.53;4879457;29;19988;-75
2022/04/01 10:21:51;;;;;;;;;;;;;;;2.23;92.70;94769.91;4879318;29;19963;-75
2022/04/01 10:24:23;;;;;;;;;;;;;;;2.15;91.88;94768.34;4879518;29;20423;-75
2022/04/01 10:27:09;;;;;;;;;;;;;;;2.14;93.61;94771.13;4879382;29;20410;-75
2022/04/01 10:29:36;;;;;;;;;;;;;;;2.21;93.71;94771.91;4878185;29;19952;-74
2022/04/01 10:32:21;;;;;;;;;;;;;;;2.28;93.25;94780.41;4879611;29;20436;-75
2022/04/01 10:34:47;;;;;;;;;;;;;;;2.34;93.14;94778.81;4868137;29;20333;-75
2022/04/01 10:37:14;;;;;;;;;;;;;;;2.37;93.16;94773.22;4879352;29;19981;-74
2022/04/01 10:39:50;;;;;;;;;;;;;;;2.38;93.30;94773.00;4878144;29;19962;-74
2022/04/01 10:42:16;;;;;;;;;;;;;;;2.36;93.03;94769.84;4879444;29;20624;-75
2022/04/01 10:44:45;;;;;;;;;;;;;;;2.36;92.24;94769.06;4879033;29;19956;-74
2022/04/01 10:47:11;;;;;;;;;;;;;;;2.38;92.84;94765.25;4879287;29;20293;-74
2022/04/01 10:52:22;;;;;;;;;;;;;;;2.44;92.68;94776.56;4878933;29;20326;-75
2022/04/01 10:54:49;;;;;;;;;;;;;;;2.42;93.34;94783.75;4879486;29;19958;-74
2022/04/01 10:57:37;;;;;;;;;;;;;;;2.47;93.46;94780.53;4878573;29;19970;-74
2022/04/01 11:00:16;;;;;;;;;;;;;;;2.43;92.25;94770.59;4878966;29;19959;-74
2022/04/01 11:02:43;;;;;;;;;;;;;;;2.44;93.06;94786.91;4879006;29;19952;-75
2022/04/01 11:05:22;;;;;;;;;;;;;;;2.42;92.21;94781.94;4879028;29;19964;-74
2022/04/01 11:08:08;;;;;;;;;;;;;;;2.49;93.69;94786.28;4879143;29;20440;-75
2022/04/01 11:10:34;;;;;;;;;;;;;;;2.54;92.15;94789.03;4880128;29;19960;-75
2022/04/01 11:13:00;;;;;;;;;;;;;;;2.54;92.63;94782.09;4882348;29;19954;-75
2022/04/01 11:15:26;;;;;;;;;;;;;;;2.56;92.93;94795.59;4882692;29;20012;-75
2022/04/01 11:17:55;;;;;;;;;;;;;;;2.54;91.98;94791.63;4821444;29;1782645;-74
2022/04/01 11:20:22;;;;;;;;;;;;;;;2.53;92.05;94796.00;4883476;29;19955;-73
2022/04/01 11:22:54;;;;;;;;;;;;;;;2.57;92.46;94793.81;4883438;29;19958;-73
2022/04/01 11:25:31;;;;;;;;;;;;;;;2.60;92.62;94790.78;4883848;29;19962;-74
2022/04/01 11:27:57;;;;;;;;;;;;;;;2.63;92.38;94798.94;4883230;29;19950;-75
2022/04/01 11:30:27;;;;;;;;;;;;;;;2.61;92.55;94795.75;4883179;29;19959;-75
2022/04/01 11:33:11;;;;;;;;;;;;;;;2.61;92.61;94793.19;4883305;29;19958;-75
2022/04/01 11:35:39;;;;;;;;;;;;;;;2.59;91.53;94796.97;4866627;29;19966;-75
2022/04/01 11:38:06;;;;;;;;;;;;;;;2.56;91.68;94792.19;4883234;29;19961;-75
2022/04/01 11:40:34;;;;;;;;;;;;;;;2.48;90.73;94801.03;4883092;29;19958;-75
2022/04/01 11:43:02;;;;;;;;;;;;;;;2.46;92.50;94800.44;4866598;29;19956;-74
2022/04/01 11:45:30;;;;;;;;;;;;;;;2.46;92.35;94803.03;4882781;29;19958;-76
2022/04/01 11:47:56;;;;;;;;;;;;;;;2.52;92.71;94802.19;4883318;29;19958;-74
2022/04/01 11:50:23;;;;;;;;;;;;;;;2.53;91.76;94808.16;4882810;29;20434;-75
2022/04/01 11:52:50;;;;;;;;;;;;;;;2.55;91.97;94803.56;4883270;29;19957;-75
2022/04/01 11:55:17;;;;;;;;;;;;;;;2.58;92.94;94811.72;4882914;29;19947;-75
2022/04/01 11:57:44;;;;;;;;;;;;;;;2.57;90.09;94804.94;4865971;29;19982;-75
2022/04/01 12:00:11;;;;;;;;;;;;;;;2.49;89.37;94809.56;4883001;29;19963;-75
2022/04/01 12:02:38;;;;;;;;;;;;;;;2.46;90.56;94800.44;4882155;29;19965;-77
2022/04/01 12:05:04;;;;;;;;;;;;;;;2.48;91.75;94811.38;4883010;29;19967;-75
2022/04/01 12:10:19;;;;;;;;;;;;;;;2.49;90.90;94807.78;4882763;29;19959;-75
2022/04/01 12:12:53;;;;;;;;;;;;;;;2.50;91.05;94806.78;4865763;29;19967;-76
2022/04/01 12:15:28;;;;;;;;;;;;;;;2.49;90.19;94812.16;4882491;29;19964;-75
2022/04/01 12:17:54;;;;;;;;;;;;;;;2.42;89.86;94818.16;4882700;29;19976;-75
2022/04/01 12:20:20;;;;;;;;;;;;;;;2.34;89.14;94813.22;4882439;29;20342;-75
2022/04/01 12:22:46;;;;;;;;;;;;;;;2.31;90.19;94805.06;4882091;29;19963;-75
2022/04/01 12:25:12;;;;;;;;;;;;;;;2.36;91.40;94813.81;4881082;29;20451;-75
2022/04/01 12:28:01;;;;;;;;;;;;;;;2.35;89.46;94807.06;4882333;29;20012;-75
2022/04/01 12:30:42;;;;;;;;;;;;;;;2.29;91.32;94812.25;4871899;29;19970;-75
2022/04/01 12:33:09;;;;;;;;;;;;;;;2.36;92.36;94807.84;4881984;29;19964;-75
2022/04/01 12:35:47;;;;;;;;;;;;;;;2.47;91.94;94804.59;4882037;29;19955;-75
2022/04/01 12:38:13;;;;;;;;;;;;;;;2.53;91.33;94805.56;4882256;29;19954;-75
2022/04/01 12:40:44;;;;;;;;;;;;;;;2.54;91.02;94810.53;4882570;29;19948;-75
2022/04/01 12:43:30;;;;;;;;;;;;;;;2.59;91.65;94813.28;4882281;29;19963;-75
2022/04/01 12:46:03;;;;;;;;;;;;;;;2.50;89.79;94811.97;4869688;29;19956;-74
2022/04/01 12:48:30;;;;;;;;;;;;;;;2.44;90.20;94813.56;4881573;29;19969;-74
2022/04/01 12:51:02;;;;;;;;;;;;;;;2.39;89.98;94820.34;4882062;29;19956;-73
2022/04/01 12:53:30;;;;;;;;;;;;;;;2.23;89.33;94811.28;4881830;29;20437;-74
2022/04/01 12:56:16;;;;;;;;;;;;;;;2.09;89.18;94826.06;4881778;29;19977;-74
2022/04/01 12:58:46;;;;;;;;;;;;;;;1.99;89.98;94823.09;4881691;29;19969;-74
2022/04/01 13:01:12;;;;;;;;;;;;;;;2.01;91.37;94821.91;4881877;29;19965;-73
2022/04/01 13:03:44;;;;;;;;;;;;;;;2.06;92.07;94821.31;4881581;29;19965;-74
2022/04/01 13:06:11;;;;;;;;;;;;;;;2.08;91.67;94821.09;4865017;29;20328;-74
2022/04/01 13:08:37;;;;;;;;;;;;;;;2.06;90.48;94834.25;4881519;29;19960;-74
2022/04/01 13:11:12;;;;;;;;;;;;;;;2.07;90.74;94824.69;4881600;29;19962;-74
2022/04/01 13:13:38;;;;;;;;;;;;;;;2.14;92.18;94825.44;4881270;29;19958;-74
2022/04/01 13:16:04;;;;;;;;;;;;;;;2.22;92.82;94828.59;4881387;29;19972;-73
2022/04/01 13:18:32;;;;;;;;;;;;;;;2.31;92.71;94830.94;4881417;29;20398;-74
2022/04/01 13:20:58;;;;;;;;;;;;;;;2.37;92.17;94830.13;4880829;29;20407;-74
2022/04/01 13:23:30;;;;;;;;;;;;;;;2.39;92.45;94831.53;4864494;29;20345;-74